sensor_id;sensor_type;location;lat;lon;timestamp;temperature;humidity
55331;DHT22;58851;42.984;20.336;2023-12-28T00:01:32;76.80;6476.80
55331;DHT22;58851;42.984;20.336;2023-12-28T00:03:59;76.80;6476.80
55331;DHT22;58851;42.984;20.336;2023-12-28T00:06:24;76.80;6476.80
55331;DHT22;58851;42.984;20.336;2023-12-28T00:08:50;76.90;6476.80
55331;DHT22;58851;42.984;20.336;2023-12-28T00:11:16;76.90;6476.80
55331;DHT22;58851;42.984;20.336;2023-12-28T00:13:42;76.80;6476.80
55331;DHT22;58851;42.984;20.336;2023-12-28T00:16:08;76.80;6476.80
55331;DHT22;58851;42.984;20.336;2023-12-28T00:18:34;76.80;6476.80
55331;DHT22;58851;42.984;20.336;2023-12-28T00:21:00;76.90;6476.80
55331;DHT22;58851;42.984;20.336;2023-12-28T00:23:26;76.90;6476.80
55331;DHT22;58851;42.984;20.336;2023-12-28T00:25:51;76.90;6476.80
55331;DHT22;58851;42.984;20.336;2023-12-28T00:28:17;76.90;6476.80
55331;DHT22;58851;42.984;20.336;2023-12-28T00:30:43;76.80;6476.80
55331;DHT22;58851;42.984;20.336;2023-12-28T00:33:09;76.90;6476.80
55331;DHT22;58851;42.984;20.336;2023-12-28T00:35:35;76.90;6476.80
55331;DHT22;58851;42.984;20.336;2023-12-28T00:38:01;77.00;6476.80
55331;DHT22;58851;42.984;20.336;2023-12-28T00:40:26;77.00;6476.80
55331;DHT22;58851;42.984;20.336;2023-12-28T00:42:52;77.00;6476.80
55331;DHT22;58851;42.984;20.336;2023-12-28T00:45:23;76.90;6476.80
55331;DHT22;58851;42.984;20.336;2023-12-28T00:47:53;76.90;6476.80
55331;DHT22;58851;42.984;20.336;2023-12-28T00:50:22;76.80;6476.80
55331;DHT22;58851;42.984;20.336;2023-12-28T00:52:48;76.90;6476.80
55331;DHT22;58851;42.984;20.336;2023-12-28T00:55:13;77.00;6476.80
55331;DHT22;58851;42.984;20.336;2023-12-28T00:57:39;76.90;6476.80
55331;DHT22;58851;42.984;20.336;2023-12-28T01:00:06;77.00;6476.80
55331;DHT22;58851;42.984;20.336;2023-12-28T01:02:32;77.00;6476.80
55331;DHT22;58851;42.984;20.336;2023-12-28T01:04:57;77.00;6476.80
55331;DHT22;58851;42.984;20.336;2023-12-28T01:07:23;77.10;6476.80
55331;DHT22;58851;42.984;20.336;2023-12-28T01:09:49;77.10;6476.80
55331;DHT22;58851;42.984;20.336;2023-12-28T01:12:15;77.10;6476.80
55331;DHT22;58851;42.984;20.336;2023-12-28T01:14:41;77.10;6476.80
55331;DHT22;58851;42.984;20.336;2023-12-28T01:17:07;77.00;6476.80
55331;DHT22;58851;42.984;20.336;2023-12-28T01:19:33;77.00;6476.80
55331;DHT22;58851;42.984;20.336;2023-12-28T01:21:59;77.00;6476.80
55331;DHT22;58851;42.984;20.336;2023-12-28T01:24:25;77.00;6476.80
55331;DHT22;58851;42.984;20.336;2023-12-28T01:26:52;76.90;6476.80
55331;DHT22;58851;42.984;20.336;2023-12-28T01:29:18;76.90;6476.80
55331;DHT22;58851;42.984;20.336;2023-12-28T01:31:44;76.90;6476.80
55331;DHT22;58851;42.984;20.336;2023-12-28T01:34:09;76.90;6476.80
55331;DHT22;58851;42.984;20.336;2023-12-28T01:36:35;76.90;6476.80
55331;DHT22;58851;42.984;20.336;2023-12-28T01:39:01;77.00;6476.80
55331;DHT22;58851;42.984;20.336;2023-12-28T01:41:27;76.90;6476.80
55331;DHT22;58851;42.984;20.336;2023-12-28T01:43:53;77.00;6476.80
55331;DHT22;58851;42.984;20.336;2023-12-28T01:46:21;76.90;6476.80
55331;DHT22;58851;42.984;20.336;2023-12-28T01:48:49;76.90;6476.80
55331;DHT22;58851;42.984;20.336;2023-12-28T01:51:15;76.90;6476.80
55331;DHT22;58851;42.984;20.336;2023-12-28T01:53:45;77.00;6476.80
55331;DHT22;58851;42.984;20.336;2023-12-28T01:56:12;76.90;6476.80
55331;DHT22;58851;42.984;20.336;2023-12-28T01:58:40;77.00;6476.80
55331;DHT22;58851;42.984;20.336;2023-12-28T02:01:07;76.90;6476.80
55331;DHT22;58851;42.984;20.336;2023-12-28T02:03:33;76.90;6476.80
55331;DHT22;58851;42.984;20.336;2023-12-28T02:06:00;76.90;6476.80
55331;DHT22;58851;42.984;20.336;2023-12-28T02:08:27;76.90;6476.80
55331;DHT22;58851;42.984;20.336;2023-12-28T02:10:53;76.90;6476.80
55331;DHT22;58851;42.984;20.336;2023-12-28T02:13:20;76.90;6476.80
55331;DHT22;58851;42.984;20.336;2023-12-28T02:15:48;77.00;6476.80
55331;DHT22;58851;42.984;20.336;2023-12-28T02:18:21;77.00;6476.80
55331;DHT22;58851;42.984;20.336;2023-12-28T02:20:48;77.00;6476.80
55331;DHT22;58851;42.984;20.336;2023-12-28T02:23:15;77.00;6476.80
55331;DHT22;58851;42.984;20.336;2023-12-28T02:25:41;77.00;6476.80
55331;DHT22;58851;42.984;20.336;2023-12-28T02:28:08;77.00;6476.80
55331;DHT22;58851;42.984;20.336;2023-12-28T02:30:34;77.00;6476.80
55331;DHT22;58851;42.984;20.336;2023-12-28T02:35:40;76.90;6476.80
55331;DHT22;58851;42.984;20.336;2023-12-28T02:38:09;76.80;6476.80
55331;DHT22;58851;42.984;20.336;2023-12-28T02:40:41;52.10;6476.80
55331;DHT22;58851;42.984;20.336;2023-12-28T02:43:09;76.80;6476.80
55331;DHT22;58851;42.984;20.336;2023-12-28T02:45:37;76.80;6476.80
55331;DHT22;58851;42.984;20.336;2023-12-28T02:48:04;76.80;6476.80
55331;DHT22;58851;42.984;20.336;2023-12-28T02:50:30;76.80;6476.80
55331;DHT22;58851;42.984;20.336;2023-12-28T02:52:57;76.80;6476.80
55331;DHT22;58851;42.984;20.336;2023-12-28T02:55:23;76.80;6476.80
55331;DHT22;58851;42.984;20.336;2023-12-28T02:57:50;76.80;6476.80
55331;DHT22;58851;42.984;20.336;2023-12-28T03:00:16;76.80;6476.80
55331;DHT22;58851;42.984;20.336;2023-12-28T03:02:43;76.90;6476.80
55331;DHT22;58851;42.984;20.336;2023-12-28T03:05:09;76.90;6476.80
55331;DHT22;58851;42.984;20.336;2023-12-28T03:07:35;76.80;6476.80
55331;DHT22;58851;42.984;20.336;2023-12-28T03:10:02;52.10;6476.80
55331;DHT22;58851;42.984;20.336;2023-12-28T03:12:29;52.10;6476.80
55331;DHT22;58851;42.984;20.336;2023-12-28T03:14:55;52.00;6476.80
55331;DHT22;58851;42.984;20.336;2023-12-28T03:17:21;52.10;6476.80
55331;DHT22;58851;42.984;20.336;2023-12-28T03:19:48;52.00;6476.80
55331;DHT22;58851;42.984;20.336;2023-12-28T03:22:13;52.00;6476.80
55331;DHT22;58851;42.984;20.336;2023-12-28T03:24:40;52.10;6476.80
55331;DHT22;58851;42.984;20.336;2023-12-28T03:27:06;52.10;6476.80
55331;DHT22;58851;42.984;20.336;2023-12-28T03:29:32;52.00;6476.80
55331;DHT22;58851;42.984;20.336;2023-12-28T03:31:58;52.00;6476.80
55331;DHT22;58851;42.984;20.336;2023-12-28T03:34:25;52.00;6476.80
55331;DHT22;58851;42.984;20.336;2023-12-28T03:36:55;52.00;6476.80
55331;DHT22;58851;42.984;20.336;2023-12-28T03:39:22;52.00;6476.80
55331;DHT22;58851;42.984;20.336;2023-12-28T03:41:49;52.00;6476.80
55331;DHT22;58851;42.984;20.336;2023-12-28T03:44:14;52.00;6476.80
55331;DHT22;58851;42.984;20.336;2023-12-28T03:46:40;52.00;6476.80
55331;DHT22;58851;42.984;20.336;2023-12-28T03:49:06;52.00;6476.80
55331;DHT22;58851;42.984;20.336;2023-12-28T03:51:32;52.00;6476.80
55331;DHT22;58851;42.984;20.336;2023-12-28T03:53:58;52.00;6476.80
55331;DHT22;58851;42.984;20.336;2023-12-28T03:56:28;52.00;6476.80
55331;DHT22;58851;42.984;20.336;2023-12-28T03:58:54;52.00;6476.80
55331;DHT22;58851;42.984;20.336;2023-12-28T04:01:21;51.90;6476.80
55331;DHT22;58851;42.984;20.336;2023-12-28T04:03:47;51.80;6476.80
55331;DHT22;58851;42.984;20.336;2023-12-28T04:06:13;51.80;6476.80
55331;DHT22;58851;42.984;20.336;2023-12-28T04:08:41;51.70;6476.80
55331;DHT22;58851;42.984;20.336;2023-12-28T04:11:08;51.70;6476.80
55331;DHT22;58851;42.984;20.336;2023-12-28T04:13:34;51.80;6476.80
55331;DHT22;58851;42.984;20.336;2023-12-28T04:16:00;51.80;6476.80
55331;DHT22;58851;42.984;20.336;2023-12-28T04:18:26;51.80;6476.80
55331;DHT22;58851;42.984;20.336;2023-12-28T04:20:52;51.80;6476.80
55331;DHT22;58851;42.984;20.336;2023-12-28T04:23:18;51.70;6476.80
55331;DHT22;58851;42.984;20.336;2023-12-28T04:25:44;51.70;6476.80
55331;DHT22;58851;42.984;20.336;2023-12-28T04:28:10;51.70;6476.80
55331;DHT22;58851;42.984;20.336;2023-12-28T04:30:36;51.70;6476.80
55331;DHT22;58851;42.984;20.336;2023-12-28T04:33:02;51.70;6476.80
55331;DHT22;58851;42.984;20.336;2023-12-28T04:35:28;51.60;6476.80
55331;DHT22;58851;42.984;20.336;2023-12-28T04:37:54;51.60;6476.80
55331;DHT22;58851;42.984;20.336;2023-12-28T04:40:20;51.60;6476.80
55331;DHT22;58851;42.984;20.336;2023-12-28T04:42:46;51.60;6476.80
55331;DHT22;58851;42.984;20.336;2023-12-28T04:45:13;51.50;6476.80
55331;DHT22;58851;42.984;20.336;2023-12-28T04:47:39;51.50;6476.80
55331;DHT22;58851;42.984;20.336;2023-12-28T04:50:06;51.40;6476.80
55331;DHT22;58851;42.984;20.336;2023-12-28T04:52:32;51.40;6476.80
55331;DHT22;58851;42.984;20.336;2023-12-28T04:54:58;51.50;6476.80
55331;DHT22;58851;42.984;20.336;2023-12-28T04:57:24;51.50;6476.80
55331;DHT22;58851;42.984;20.336;2023-12-28T04:59:51;51.50;6476.80
55331;DHT22;58851;42.984;20.336;2023-12-28T05:02:17;51.50;6476.80
55331;DHT22;58851;42.984;20.336;2023-12-28T05:04:43;51.50;6476.80
55331;DHT22;58851;42.984;20.336;2023-12-28T05:07:09;51.50;6476.80
55331;DHT22;58851;42.984;20.336;2023-12-28T05:09:35;51.50;6476.80
55331;DHT22;58851;42.984;20.336;2023-12-28T05:12:01;51.40;6476.80
55331;DHT22;58851;42.984;20.336;2023-12-28T05:14:28;51.40;6476.80
55331;DHT22;58851;42.984;20.336;2023-12-28T05:16:53;51.40;6476.80
55331;DHT22;58851;42.984;20.336;2023-12-28T05:19:19;51.30;6476.80
55331;DHT22;58851;42.984;20.336;2023-12-28T05:21:45;51.40;6476.80
55331;DHT22;58851;42.984;20.336;2023-12-28T05:24:12;51.40;6476.80
55331;DHT22;58851;42.984;20.336;2023-12-28T05:26:38;51.30;6476.80
55331;DHT22;58851;42.984;20.336;2023-12-28T05:29:04;51.30;6476.80
55331;DHT22;58851;42.984;20.336;2023-12-28T05:31:30;51.30;6476.80
55331;DHT22;58851;42.984;20.336;2023-12-28T05:33:56;51.30;6476.80
55331;DHT22;58851;42.984;20.336;2023-12-28T05:36:24;51.20;6476.80
55331;DHT22;58851;42.984;20.336;2023-12-28T05:38:50;51.20;6476.80
55331;DHT22;58851;42.984;20.336;2023-12-28T05:41:16;51.20;6476.80
55331;DHT22;58851;42.984;20.336;2023-12-28T05:43:42;51.30;6476.80
55331;DHT22;58851;42.984;20.336;2023-12-28T05:46:08;51.30;6476.80
55331;DHT22;58851;42.984;20.336;2023-12-28T05:48:34;51.30;6476.80
55331;DHT22;58851;42.984;20.336;2023-12-28T05:51:00;51.30;6476.80
55331;DHT22;58851;42.984;20.336;2023-12-28T05:53:26;51.30;6476.80
55331;DHT22;58851;42.984;20.336;2023-12-28T05:55:53;51.40;6476.80
55331;DHT22;58851;42.984;20.336;2023-12-28T05:58:19;51.30;6476.80
55331;DHT22;58851;42.984;20.336;2023-12-28T06:00:45;51.30;6476.80
55331;DHT22;58851;42.984;20.336;2023-12-28T06:03:14;26.50;6451.20
55331;DHT22;58851;42.984;20.336;2023-12-28T06:05:40;51.20;6476.80
55331;DHT22;58851;42.984;20.336;2023-12-28T06:08:06;26.50;6451.20
55331;DHT22;58851;42.984;20.336;2023-12-28T06:10:32;26.40;6451.20
55331;DHT22;58851;42.984;20.336;2023-12-28T06:12:57;26.40;6451.20
55331;DHT22;58851;42.984;20.336;2023-12-28T06:15:23;26.40;6451.20
55331;DHT22;58851;42.984;20.336;2023-12-28T06:17:49;26.40;6451.20
55331;DHT22;58851;42.984;20.336;2023-12-28T06:20:15;26.50;6451.20
55331;DHT22;58851;42.984;20.336;2023-12-28T06:22:41;26.50;6451.20
55331;DHT22;58851;42.984;20.336;2023-12-28T06:25:08;26.50;6451.20
55331;DHT22;58851;42.984;20.336;2023-12-28T06:27:36;26.30;6451.20
55331;DHT22;58851;42.984;20.336;2023-12-28T06:30:02;26.10;6451.20
55331;DHT22;58851;42.984;20.336;2023-12-28T06:32:28;26.00;6451.20
55331;DHT22;58851;42.984;20.336;2023-12-28T06:34:54;26.00;6451.20
55331;DHT22;58851;42.984;20.336;2023-12-28T06:37:20;26.10;6451.20
55331;DHT22;58851;42.984;20.336;2023-12-28T06:39:46;26.20;6451.20
55331;DHT22;58851;42.984;20.336;2023-12-28T06:42:12;26.20;6451.20
55331;DHT22;58851;42.984;20.336;2023-12-28T06:44:37;26.30;6451.20
55331;DHT22;58851;42.984;20.336;2023-12-28T06:47:03;26.40;6451.20
55331;DHT22;58851;42.984;20.336;2023-12-28T06:49:29;26.40;6451.20
55331;DHT22;58851;42.984;20.336;2023-12-28T06:51:56;26.40;6451.20
55331;DHT22;58851;42.984;20.336;2023-12-28T06:54:22;26.40;6451.20
55331;DHT22;58851;42.984;20.336;2023-12-28T06:56:48;26.40;6451.20
55331;DHT22;58851;42.984;20.336;2023-12-28T06:59:17;26.50;6451.20
55331;DHT22;58851;42.984;20.336;2023-12-28T07:01:43;26.50;6451.20
55331;DHT22;58851;42.984;20.336;2023-12-28T07:04:14;26.40;6451.20
55331;DHT22;58851;42.984;20.336;2023-12-28T07:06:42;26.40;6451.20
55331;DHT22;58851;42.984;20.336;2023-12-28T07:09:10;26.50;6451.20
55331;DHT22;58851;42.984;20.336;2023-12-28T07:11:36;26.50;6451.20
55331;DHT22;58851;42.984;20.336;2023-12-28T07:14:02;26.50;6451.20
55331;DHT22;58851;42.984;20.336;2023-12-28T07:16:28;51.20;6476.80
55331;DHT22;58851;42.984;20.336;2023-12-28T07:18:53;51.20;6476.80
55331;DHT22;58851;42.984;20.336;2023-12-28T07:21:19;51.20;6476.80
55331;DHT22;58851;42.984;20.336;2023-12-28T07:23:45;51.20;6476.80
55331;DHT22;58851;42.984;20.336;2023-12-28T07:26:15;51.20;6476.80
55331;DHT22;58851;42.984;20.336;2023-12-28T07:28:41;51.20;6476.80
55331;DHT22;58851;42.984;20.336;2023-12-28T07:31:09;51.30;6476.80
55331;DHT22;58851;42.984;20.336;2023-12-28T07:33:35;51.40;6476.80
55331;DHT22;58851;42.984;20.336;2023-12-28T07:36:00;51.40;6476.80
55331;DHT22;58851;42.984;20.336;2023-12-28T07:38:28;51.30;6476.80
55331;DHT22;58851;42.984;20.336;2023-12-28T07:40:54;51.30;6476.80
55331;DHT22;58851;42.984;20.336;2023-12-28T07:43:19;51.30;6476.80
55331;DHT22;58851;42.984;20.336;2023-12-28T07:45:45;51.20;6476.80
55331;DHT22;58851;42.984;20.336;2023-12-28T07:48:11;51.20;6476.80
55331;DHT22;58851;42.984;20.336;2023-12-28T07:50:37;51.30;6476.80
55331;DHT22;58851;42.984;20.336;2023-12-28T07:53:03;51.30;6476.80
55331;DHT22;58851;42.984;20.336;2023-12-28T07:55:29;51.30;6476.80
55331;DHT22;58851;42.984;20.336;2023-12-28T07:57:55;51.40;6476.80
55331;DHT22;58851;42.984;20.336;2023-12-28T08:00:20;51.40;6476.80
55331;DHT22;58851;42.984;20.336;2023-12-28T08:02:46;51.40;6476.80
55331;DHT22;58851;42.984;20.336;2023-12-28T08:05:12;51.30;6476.80
55331;DHT22;58851;42.984;20.336;2023-12-28T08:07:38;51.40;6476.80
55331;DHT22;58851;42.984;20.336;2023-12-28T08:10:04;51.60;6476.80
55331;DHT22;58851;42.984;20.336;2023-12-28T08:12:31;51.60;6502.40
55331;DHT22;58851;42.984;20.336;2023-12-28T08:14:57;51.70;179.20
55331;DHT22;58851;42.984;20.336;2023-12-28T08:17:22;51.70;179.20
55331;DHT22;58851;42.984;20.336;2023-12-28T08:19:48;51.80;332.80
55331;DHT22;58851;42.984;20.336;2023-12-28T08:22:14;51.90;281.60
55331;DHT22;58851;42.984;20.336;2023-12-28T08:24:40;52.00;358.40
55331;DHT22;58851;42.984;20.336;2023-12-28T08:27:06;52.00;384.00
55331;DHT22;58851;42.984;20.336;2023-12-28T08:29:31;52.10;460.80
55331;DHT22;58851;42.984;20.336;2023-12-28T08:31:57;52.10;409.60
55331;DHT22;58851;42.984;20.336;2023-12-28T08:34:23;52.00;512.00
55331;DHT22;58851;42.984;20.336;2023-12-28T08:36:49;52.10;409.60
55331;DHT22;58851;42.984;20.336;2023-12-28T08:39:15;76.80;6476.80
55331;DHT22;58851;42.984;20.336;2023-12-28T08:41:40;76.80;486.40
55331;DHT22;58851;42.984;20.336;2023-12-28T08:44:06;76.80;512.00
55331;DHT22;58851;42.984;20.336;2023-12-28T08:46:32;76.80;307.20
55331;DHT22;58851;42.984;20.336;2023-12-28T08:48:58;76.80;6476.80
55331;DHT22;58851;42.984;20.336;2023-12-28T08:51:24;76.80;537.60
55331;DHT22;58851;42.984;20.336;2023-12-28T08:53:50;76.80;307.20
55331;DHT22;58851;42.984;20.336;2023-12-28T08:56:17;76.80;281.60
55331;DHT22;58851;42.984;20.336;2023-12-28T08:58:44;76.90;256.00
55331;DHT22;58851;42.984;20.336;2023-12-28T09:01:16;77.00;332.80
55331;DHT22;58851;42.984;20.336;2023-12-28T09:03:42;77.00;358.40
55331;DHT22;58851;42.984;20.336;2023-12-28T09:06:08;77.20;384.00
55331;DHT22;58851;42.984;20.336;2023-12-28T09:08:34;77.30;281.60
55331;DHT22;58851;42.984;20.336;2023-12-28T09:11:00;77.30;230.40
55331;DHT22;58851;42.984;20.336;2023-12-28T09:13:26;77.50;256.00
55331;DHT22;58851;42.984;20.336;2023-12-28T09:15:52;77.40;128.00
55331;DHT22;58851;42.984;20.336;2023-12-28T09:18:17;77.60;128.00
55331;DHT22;58851;42.984;20.336;2023-12-28T09:20:43;102.40;6476.80
55331;DHT22;58851;42.984;20.336;2023-12-28T09:23:09;102.40;6476.80
55331;DHT22;58851;42.984;20.336;2023-12-28T09:25:36;102.40;6476.80
55331;DHT22;58851;42.984;20.336;2023-12-28T09:28:04;77.60;6476.80
55331;DHT22;58851;42.984;20.336;2023-12-28T09:30:30;77.60;6476.80
55331;DHT22;58851;42.984;20.336;2023-12-28T09:32:56;77.70;6476.80
55331;DHT22;58851;42.984;20.336;2023-12-28T09:35:22;102.50;6476.80
55331;DHT22;58851;42.984;20.336;2023-12-28T09:37:50;102.70;6476.80
55331;DHT22;58851;42.984;20.336;2023-12-28T09:40:16;102.60;6476.80
55331;DHT22;58851;42.984;20.336;2023-12-28T09:45:20;102.70;6476.80
55331;DHT22;58851;42.984;20.336;2023-12-28T09:47:46;102.80;6476.80
55331;DHT22;58851;42.984;20.336;2023-12-28T09:50:18;102.80;6476.80
55331;DHT22;58851;42.984;20.336;2023-12-28T09:52:45;102.70;6476.80
55331;DHT22;58851;42.984;20.336;2023-12-28T09:55:11;102.90;6476.80
55331;DHT22;58851;42.984;20.336;2023-12-28T09:57:37;102.80;6476.80
55331;DHT22;58851;42.984;20.336;2023-12-28T10:00:04;102.70;6476.80
55331;DHT22;58851;42.984;20.336;2023-12-28T10:02:33;102.90;6476.80
55331;DHT22;58851;42.984;20.336;2023-12-28T10:04:59;102.70;6476.80
55331;DHT22;58851;42.984;20.336;2023-12-28T10:07:25;102.60;6476.80
55331;DHT22;58851;42.984;20.336;2023-12-28T10:09:52;102.90;6476.80
55331;DHT22;58851;42.984;20.336;2023-12-28T10:12:18;102.90;6476.80
55331;DHT22;58851;42.984;20.336;2023-12-28T10:14:44;102.80;6476.80
55331;DHT22;58851;42.984;20.336;2023-12-28T10:17:10;103.00;6476.80
55331;DHT22;58851;42.984;20.336;2023-12-28T10:19:37;102.80;6476.80
55331;DHT22;58851;42.984;20.336;2023-12-28T10:22:03;102.80;128.00
55331;DHT22;58851;42.984;20.336;2023-12-28T10:24:30;103.10;6476.80
55331;DHT22;58851;42.984;20.336;2023-12-28T10:26:56;103.00;6476.80
55331;DHT22;58851;42.984;20.336;2023-12-28T10:29:24;103.20;6476.80
55331;DHT22;58851;42.984;20.336;2023-12-28T10:31:51;103.30;6476.80
55331;DHT22;58851;42.984;20.336;2023-12-28T10:34:18;128.00;128.00
55331;DHT22;58851;42.984;20.336;2023-12-28T10:36:45;128.00;6502.40
55331;DHT22;58851;42.984;20.336;2023-12-28T10:39:12;128.20;6502.40
55331;DHT22;58851;42.984;20.336;2023-12-28T10:41:44;128.40;6502.40
55331;DHT22;58851;42.984;20.336;2023-12-28T10:44:12;128.40;6502.40
55331;DHT22;58851;42.984;20.336;2023-12-28T10:46:41;128.30;6502.40
55331;DHT22;58851;42.984;20.336;2023-12-28T10:49:16;128.40;6502.40
55331;DHT22;58851;42.984;20.336;2023-12-28T10:51:43;128.70;6502.40
55331;DHT22;58851;42.984;20.336;2023-12-28T10:54:47;128.60;6502.40
55331;DHT22;58851;42.984;20.336;2023-12-28T11:00:22;153.60;6502.40
55331;DHT22;58851;42.984;20.336;2023-12-28T11:02:52;153.80;6502.40
55331;DHT22;58851;42.984;20.336;2023-12-28T11:05:22;154.00;6502.40
55331;DHT22;58851;42.984;20.336;2023-12-28T11:07:50;154.20;6502.40
55331;DHT22;58851;42.984;20.336;2023-12-28T11:10:22;154.40;6502.40
55331;DHT22;58851;42.984;20.336;2023-12-28T11:12:51;154.50;6502.40
55331;DHT22;58851;42.984;20.336;2023-12-28T11:15:18;179.30;6502.40
55331;DHT22;58851;42.984;20.336;2023-12-28T11:17:45;179.40;6502.40
55331;DHT22;58851;42.984;20.336;2023-12-28T11:20:11;179.60;6502.40
55331;DHT22;58851;42.984;20.336;2023-12-28T11:22:38;179.80;6502.40
55331;DHT22;58851;42.984;20.336;2023-12-28T11:25:05;179.90;6502.40
55331;DHT22;58851;42.984;20.336;2023-12-28T11:27:37;180.10;6502.40
55331;DHT22;58851;42.984;20.336;2023-12-28T11:30:04;204.80;6502.40
55331;DHT22;58851;42.984;20.336;2023-12-28T11:32:35;205.00;6502.40
55331;DHT22;58851;42.984;20.336;2023-12-28T11:35:01;205.00;6502.40
55331;DHT22;58851;42.984;20.336;2023-12-28T11:37:29;205.10;6502.40
55331;DHT22;58851;42.984;20.336;2023-12-28T11:39:55;205.10;6502.40
55331;DHT22;58851;42.984;20.336;2023-12-28T11:42:23;205.20;6502.40
55331;DHT22;58851;42.984;20.336;2023-12-28T11:44:54;205.40;6502.40
55331;DHT22;58851;42.984;20.336;2023-12-28T11:47:25;205.70;6502.40
55331;DHT22;58851;42.984;20.336;2023-12-28T11:49:52;230.50;6502.40
55331;DHT22;58851;42.984;20.336;2023-12-28T11:52:30;230.70;6502.40
55331;DHT22;58851;42.984;20.336;2023-12-28T11:54:57;230.90;6502.40
55331;DHT22;58851;42.984;20.336;2023-12-28T11:57:25;231.20;6502.40
55331;DHT22;58851;42.984;20.336;2023-12-28T11:59:57;256.00;6502.40
55331;DHT22;58851;42.984;20.336;2023-12-28T12:02:23;256.10;128.00
55331;DHT22;58851;42.984;20.336;2023-12-28T12:04:53;256.20;307.20
55331;DHT22;58851;42.984;20.336;2023-12-28T12:07:20;256.30;460.80
55331;DHT22;58851;42.984;20.336;2023-12-28T12:09:46;256.50;537.60
55331;DHT22;58851;42.984;20.336;2023-12-28T12:12:11;256.50;6502.40
55331;DHT22;58851;42.984;20.336;2023-12-28T12:14:37;256.70;6502.40
55331;DHT22;58851;42.984;20.336;2023-12-28T12:17:03;281.60;6528.00
55331;DHT22;58851;42.984;20.336;2023-12-28T12:19:30;281.80;6528.00
55331;DHT22;58851;42.984;20.336;2023-12-28T12:21:56;282.00;6528.00
55331;DHT22;58851;42.984;20.336;2023-12-28T12:24:23;282.20;6528.00
55331;DHT22;58851;42.984;20.336;2023-12-28T12:26:53;282.40;6528.00
55331;DHT22;58851;42.984;20.336;2023-12-28T12:29:19;307.20;128.00
55331;DHT22;58851;42.984;20.336;2023-12-28T12:31:46;307.30;128.00
55331;DHT22;58851;42.984;20.336;2023-12-28T12:34:16;307.50;128.00
55331;DHT22;58851;42.984;20.336;2023-12-28T12:36:42;307.70;128.00
55331;DHT22;58851;42.984;20.336;2023-12-28T12:39:10;307.90;128.00
55331;DHT22;58851;42.984;20.336;2023-12-28T12:41:37;308.10;128.00
55331;DHT22;58851;42.984;20.336;2023-12-28T12:44:04;332.80;128.00
55331;DHT22;58851;42.984;20.336;2023-12-28T12:46:30;332.80;128.00
55331;DHT22;58851;42.984;20.336;2023-12-28T12:48:57;333.00;128.00
55331;DHT22;58851;42.984;20.336;2023-12-28T12:51:23;333.00;128.00
55331;DHT22;58851;42.984;20.336;2023-12-28T12:53:50;333.20;128.00
55331;DHT22;58851;42.984;20.336;2023-12-28T12:56:16;333.40;128.00
55331;DHT22;58851;42.984;20.336;2023-12-28T12:58:45;333.50;128.00
55331;DHT22;58851;42.984;20.336;2023-12-28T13:01:11;333.50;128.00
55331;DHT22;58851;42.984;20.336;2023-12-28T13:03:37;333.70;128.00
55331;DHT22;58851;42.984;20.336;2023-12-28T13:06:04;333.70;128.00
55331;DHT22;58851;42.984;20.336;2023-12-28T13:08:30;333.40;128.00
55331;DHT22;58851;42.984;20.336;2023-12-28T13:10:56;333.30;128.00
55331;DHT22;58851;42.984;20.336;2023-12-28T13:13:21;333.20;128.00
55331;DHT22;58851;42.984;20.336;2023-12-28T13:15:48;333.00;128.00
55331;DHT22;58851;42.984;20.336;2023-12-28T13:18:15;332.80;128.00
55331;DHT22;58851;42.984;20.336;2023-12-28T13:20:41;308.10;128.00
55331;DHT22;58851;42.984;20.336;2023-12-28T13:23:09;308.10;128.00
55331;DHT22;58851;42.984;20.336;2023-12-28T13:25:35;308.10;128.00
55331;DHT22;58851;42.984;20.336;2023-12-28T13:28:01;308.10;128.00
55331;DHT22;58851;42.984;20.336;2023-12-28T13:30:27;332.80;128.00
55331;DHT22;58851;42.984;20.336;2023-12-28T13:32:54;308.10;128.00
55331;DHT22;58851;42.984;20.336;2023-12-28T13:35:22;333.20;128.00
55331;DHT22;58851;42.984;20.336;2023-12-28T13:37:48;333.50;128.00
55331;DHT22;58851;42.984;20.336;2023-12-28T13:40:15;333.60;128.00
55331;DHT22;58851;42.984;20.336;2023-12-28T13:42:41;358.40;128.00
55331;DHT22;58851;42.984;20.336;2023-12-28T13:45:07;358.50;128.00
55331;DHT22;58851;42.984;20.336;2023-12-28T13:47:33;358.60;128.00
55331;DHT22;58851;42.984;20.336;2023-12-28T13:49:59;358.60;128.00
55331;DHT22;58851;42.984;20.336;2023-12-28T13:52:25;358.70;128.00
55331;DHT22;58851;42.984;20.336;2023-12-28T13:54:51;358.60;128.00
55331;DHT22;58851;42.984;20.336;2023-12-28T13:57:16;358.50;128.00
55331;DHT22;58851;42.984;20.336;2023-12-28T13:59:42;358.50;128.00
55331;DHT22;58851;42.984;20.336;2023-12-28T14:02:08;358.50;128.00
55331;DHT22;58851;42.984;20.336;2023-12-28T14:04:34;333.70;128.00
55331;DHT22;58851;42.984;20.336;2023-12-28T14:06:59;333.60;128.00
55331;DHT22;58851;42.984;20.336;2023-12-28T14:09:25;333.40;128.00
55331;DHT22;58851;42.984;20.336;2023-12-28T14:11:51;333.20;128.00
55331;DHT22;58851;42.984;20.336;2023-12-28T14:14:17;333.00;128.00
55331;DHT22;58851;42.984;20.336;2023-12-28T14:16:43;332.80;128.00
55331;DHT22;58851;42.984;20.336;2023-12-28T14:19:09;307.90;128.00
55331;DHT22;58851;42.984;20.336;2023-12-28T14:21:37;307.60;128.00
55331;DHT22;58851;42.984;20.336;2023-12-28T14:24:04;307.30;128.00
55331;DHT22;58851;42.984;20.336;2023-12-28T14:26:32;282.50;6528.00
55331;DHT22;58851;42.984;20.336;2023-12-28T14:28:59;282.30;6528.00
55331;DHT22;58851;42.984;20.336;2023-12-28T14:31:28;282.10;6528.00
55331;DHT22;58851;42.984;20.336;2023-12-28T14:33:54;281.90;6528.00
55331;DHT22;58851;42.984;20.336;2023-12-28T14:36:35;281.60;6528.00
55331;DHT22;58851;42.984;20.336;2023-12-28T14:39:05;256.80;6502.40
55331;DHT22;58851;42.984;20.336;2023-12-28T14:41:35;256.60;6502.40
55331;DHT22;58851;42.984;20.336;2023-12-28T14:44:01;256.30;6502.40
55331;DHT22;58851;42.984;20.336;2023-12-28T14:46:27;256.20;6502.40
55331;DHT22;58851;42.984;20.336;2023-12-28T14:48:55;231.20;6502.40
55331;DHT22;58851;42.984;20.336;2023-12-28T14:51:21;231.20;6502.40